Aegean Viii — SXKO — position and weather

sailwx.info

Track history (hours):
 
Tides and Currents Weather Stations Pressure Air Temp Water Temp Dewpoint Dewpoint Depression Visibility Wind Speed Wind Dir Waves Ship Positions

Aegean Viii

Last reported at 2017-May-23 11:35 UTC. Time now 2017-May-23 14:48 UTC.
Position N 38°02' E 023°32'.

Length 12 m; draft 3.8 m.

Type: Tanker. MMSI: 240732000.

Date/timePositionNaut miles runAvg speedWind from/ knotsBaromVisibWave heightAir tempDewpointWater temp
2017-May-23 11:35N 38°02' E 023°32'0 0.0
2017-May-23 11:30N 38°02' E 023°32'0 0.0
2017-May-23 11:00N 38°02' E 023°32'0 0.0
2017-May-23 10:30N 38°02' E 023°32'0 0.0
2017-May-23 10:00N 38°02' E 023°32'0 0.0
2017-May-23 09:30N 38°02' E 023°32'0 0.0
2017-May-23 09:00N 38°02' E 023°32'0 0.0
2017-May-23 08:30N 38°02' E 023°32'0 0.0
2017-May-23 08:00N 38°02' E 023°32'0 0.0
2017-May-23 07:31N 38°02' E 023°32'0 0.0
2017-May-23 07:00N 38°02' E 023°32'0 0.0
2017-May-23 06:30N 38°02' E 023°32'0 0.0
2017-May-23 06:00N 38°02' E 023°32'0 0.0
2017-May-23 05:30N 38°02' E 023°32'0 0.0
2017-May-23 05:01N 38°02' E 023°32'0 0.0
2017-May-22 15:17N 38°02' E 023°32'0 0.0
2017-May-22 15:00N 38°02' E 023°32'4 3.8
2017-May-22 14:00N 37°59' E 023°33'4 8.2
2017-May-22 13:30N 37°56' E 023°37'1 1.6
2017-May-22 13:00N 37°56' E 023°38'0 0.0
2017-May-22 12:30N 37°56' E 023°38'0 0.0
2017-May-22 12:00N 37°56' E 023°38'0 0.0
2017-May-22 11:29N 37°56' E 023°38'0 0.0
2017-May-22 11:00N 37°56' E 023°38'0 0.0
2017-May-22 10:30N 37°56' E 023°38'0 0.0
2017-May-22 10:00N 37°56' E 023°38'0 0.0
2017-May-22 09:30N 37°56' E 023°38'0 0.0
2017-May-22 09:00N 37°56' E 023°38'0 0.0
2017-May-22 08:29N 37°56' E 023°38'0 0.0
2017-May-22 08:00N 37°56' E 023°38'0 0.2
2017-May-22 07:30N 37°56' E 023°38'0 0.0
2017-May-22 07:00N 37°56' E 023°38'0 0.0
2017-May-22 06:30N 37°56' E 023°38'0 0.0
2017-May-22 06:00N 37°56' E 023°38'0 0.0
2017-May-22 05:30N 37°56' E 023°38'0 0.0
2017-May-22 05:00N 37°56' E 023°38'2 4.3
2017-May-22 04:30N 37°57' E 023°35'4 7.7
2017-May-22 04:00N 37°60' E 023°33'2 1.6
2017-May-22 02:33N 38°02' E 023°32'0 0.0
2017-May-22 02:30N 38°02' E 023°32'0 0.0
2017-May-22 02:00N 38°02' E 023°32'0 0.0
2017-May-22 01:30N 38°02' E 023°32'0 0.0
2017-May-22 01:00N 38°02' E 023°32'0 0.0
2017-May-22 00:26N 38°02' E 023°32'0 0.0
2017-May-21 11:38N 38°02' E 023°32'0 0.0
2017-May-21 11:30N 38°02' E 023°32'0 0.2
2017-May-21 11:00N 38°02' E 023°32'3 5.8
2017-May-21 10:30N 37°59' E 023°33'4 7.1
2017-May-21 09:59N 37°57' E 023°36'2 3.5
2017-May-21 09:30N 37°56' E 023°38'0 0.0
2017-May-21 09:00N 37°56' E 023°38'0 0.0
2017-May-21 08:31N 37°56' E 023°38'0 0.1
2017-May-21 08:00N 37°56' E 023°38'0 0.0
2017-May-21 07:30N 37°56' E 023°38'0 0.0
2017-May-21 07:00N 37°56' E 023°38'0 0.1
2017-May-21 06:30N 37°56' E 023°38'0 0.0
2017-May-21 06:00N 37°56' E 023°38'0 0.2
2017-May-21 05:30N 37°56' E 023°38'3 5.4
2017-May-21 05:00N 37°57' E 023°35'3 7.2
2017-May-21 04:31N 38°00' E 023°33'2 4.3
2017-May-21 04:00N 38°02' E 023°32'0 0.0
2017-May-21 03:30N 38°02' E 023°32'0 0.0
2017-May-21 03:00N 38°02' E 023°32'0 0.0
2017-May-21 02:30N 38°02' E 023°32'0 0.0
2017-May-21 02:00N 38°02' E 023°32'0 0.0
2017-May-20 08:01N 38°02' E 023°32'0 0.4
2017-May-20 08:00N 38°02' E 023°32'0 0.1
2017-May-20 07:30N 38°02' E 023°32'1 2.1
2017-May-20 07:00N 38°02' E 023°31'0 0.0
2017-May-20 06:30N 38°02' E 023°31'0 0.0
2017-May-20 06:00N 38°02' E 023°31'0 0.0
2017-May-20 05:30N 38°02' E 023°31'0 0.0
2017-May-20 05:00N 38°02' E 023°31'0 0.0
2017-May-20 04:30N 38°02' E 023°31'0 0.0
2017-May-20 04:00N 38°02' E 023°31'0 0.0
2017-May-20 03:31N 38°02' E 023°31'0 0.0
2017-May-20 03:00N 38°02' E 023°31'0 0.0
2017-May-20 02:30N 38°02' E 023°31'0 0.0
2017-May-20 02:00N 38°02' E 023°31'0 0.0
2017-May-20 01:31N 38°02' E 023°31'0 0.0
2017-May-20 01:00N 38°02' E 023°31'0 0.0
2017-May-20 00:30N 38°02' E 023°31'0 0.0
2017-May-20 00:00N 38°02' E 023°31'0 0.0
2017-May-19 23:30N 38°02' E 023°31'0 1.0
2017-May-19 23:01N 38°02' E 023°31'0 0.1
2017-May-19 22:30N 38°02' E 023°31'0 0.0
2017-May-19 22:00N 38°02' E 023°31'0 0.0
2017-May-19 21:30N 38°02' E 023°31'0 0.0
2017-May-19 21:00N 38°02' E 023°31'0 0.0
2017-May-19 20:30N 38°02' E 023°31'0 0.0
2017-May-19 19:59N 38°02' E 023°31'0 0.0
2017-May-19 19:30N 38°02' E 023°31'0 0.0
2017-May-19 19:00N 38°02' E 023°31'0 0.0
2017-May-19 18:30N 38°02' E 023°31'0 0.0
2017-May-19 18:00N 38°02' E 023°31'0 0.0
2017-May-19 17:29N 38°02' E 023°31'0 0.0
2017-May-19 17:00N 38°02' E 023°31'0 0.0
2017-May-19 16:30N 38°02' E 023°31'0 0.0
2017-May-19 16:00N 38°02' E 023°31'0 0.0
2017-May-19 15:30N 38°02' E 023°31'0 0.0
2017-May-19 15:00N 38°02' E 023°31'3 3.3
2017-May-19 14:01N 37°59' E 023°33'2 4.1
2017-May-19 13:30N 37°57' E 023°34'0 0.0
2017-May-19 13:01N 37°57' E 023°34'1 2.3
2017-May-19 12:30N 37°56' E 023°35'3 6.2
2017-May-19 12:00N 37°53' E 023°32'0 0.0
2017-May-19 11:30N 37°53' E 023°32'0 0.0
2017-May-19 11:00N 37°53' E 023°32'0 0.0
2017-May-19 10:30N 37°53' E 023°32'0 0.0
2017-May-19 10:00N 37°53' E 023°32'1 1.7
2017-May-19 09:30N 37°54' E 023°33'4 7.0
2017-May-19 09:00N 37°58' E 023°33'4 8.5
2017-May-19 08:31N 38°01' E 023°35'1 1.1
2017-May-19 08:01N 38°02' E 023°36'0 0.0
2017-May-19 07:31N 38°02' E 023°36'0 0.0
2017-May-19 07:01N 38°02' E 023°36'0 0.0
2017-May-19 06:31N 38°02' E 023°36'0 0.0
2017-May-19 06:01N 38°02' E 023°36'0 0.0
2017-May-19 05:30N 38°02' E 023°36'0 0.0
2017-May-19 05:00N 38°02' E 023°36'0 0.0
2017-May-19 04:29N 38°02' E 023°36'0 0.0
2017-May-19 04:00N 38°02' E 023°36'0 0.0
2017-May-19 03:30N 38°02' E 023°36'0 0.0
2017-May-19 03:00N 38°02' E 023°36'0 0.0
2017-May-19 02:30N 38°02' E 023°36'0 0.0
2017-May-19 02:00N 38°02' E 023°36'1 2.1
2017-May-19 01:30N 38°02' E 023°34'2 3.9
2017-May-19 01:00N 38°02' E 023°32'0 0.0
2017-May-19 00:30N 38°02' E 023°32'0 0.0
2017-May-18 09:29N 38°02' E 023°32'0 0.0
2017-May-18 09:01N 38°02' E 023°32'0 0.0
2017-May-18 08:31N 38°02' E 023°32'0 0.0
2017-May-18 07:59N 38°02' E 023°32'0 0.0
2017-May-18 07:31N 38°02' E 023°32'0 0.0
2017-May-18 07:00N 38°02' E 023°32'0 0.0
2017-May-18 06:30N 38°02' E 023°32'0 0.0
2017-May-18 06:00N 38°02' E 023°32'0 0.0
2017-May-18 05:29N 38°02' E 023°32'0 0.0
2017-May-18 05:00N 38°02' E 023°32'0 0.0
2017-May-17 11:19N 38°02' E 023°32'0 0.0
2017-May-17 11:01N 38°02' E 023°32'0 0.0
2017-May-17 10:30N 38°02' E 023°32'0 0.0
2017-May-17 10:00N 38°02' E 023°32'0 0.0
2017-May-17 09:30N 38°02' E 023°32'0 0.0
2017-May-17 09:00N 38°02' E 023°32'0 0.0
2017-May-17 08:30N 38°02' E 023°32'0 0.0
2017-May-17 08:00N 38°02' E 023°32'0 0.0
2017-May-17 07:30N 38°02' E 023°32'0 0.0
2017-May-17 06:59N 38°02' E 023°32'0 0.0
2017-May-17 06:30N 38°02' E 023°32'0 0.0
2017-May-17 06:00N 38°02' E 023°32'0 0.0
2017-May-17 05:31N 38°02' E 023°32'0 0.0
2017-May-17 05:01N 38°02' E 023°32'0 0.0
2017-May-16 11:35N 38°02' E 023°32'0 0.0
2017-May-16 11:30N 38°02' E 023°32'0 0.0
2017-May-16 11:00N 38°02' E 023°32'0 0.0
2017-May-16 10:30N 38°02' E 023°32'0 0.0
2017-May-16 10:00N 38°02' E 023°32'0 0.0
2017-May-16 09:30N 38°02' E 023°32'0 0.0
2017-May-16 09:00N 38°02' E 023°32'0 0.0
2017-May-16 08:30N 38°02' E 023°32'0 0.0
2017-May-16 08:00N 38°02' E 023°32'0 0.0
2017-May-16 07:30N 38°02' E 023°32'0 0.0
2017-May-16 07:00N 38°02' E 023°32'0 0.0
2017-May-16 06:30N 38°02' E 023°32'0 0.0
2017-May-16 06:00N 38°02' E 023°32'0 0.0
2017-May-16 05:30N 38°02' E 023°32'0 0.0
2017-May-16 05:00N 38°02' E 023°32'0 0.0
2017-May-15 11:59N 38°02' E 023°32'0 0.0
2017-May-15 11:31N 38°02' E 023°32'0 0.0
2017-May-15 11:00N 38°02' E 023°32'0 0.0
2017-May-15 10:30N 38°02' E 023°32'0 0.0
2017-May-15 10:01N 38°02' E 023°32'0 0.0
2017-May-15 09:30N 38°02' E 023°32'0 0.0
2017-May-15 09:01N 38°02' E 023°32'0 0.0
2017-May-15 08:30N 38°02' E 023°32'0 0.0
2017-May-15 08:01N 38°02' E 023°32'0 0.0
2017-May-15 07:30N 38°02' E 023°32'0 0.0
2017-May-15 07:00N 38°02' E 023°32'0 0.0
2017-May-15 06:30N 38°02' E 023°32'0 0.0
2017-May-15 06:00N 38°02' E 023°32'0 0.0
2017-May-15 05:31N 38°02' E 023°32'0 0.0
2017-May-15 05:00N 38°02' E 023°32'0 0.0
2017-May-15 04:30N 38°02' E 023°32'0 0.0
2017-May-15 04:00N 38°02' E 023°32'0 0.0
2017-May-15 03:30N 38°02' E 023°32'0 0.0
2017-May-15 03:00N 38°02' E 023°32'0 0.0
2017-May-15 02:30N 38°02' E 023°32'0 0.0
2017-May-15 02:00N 38°02' E 023°32'  
Track history (hours):
 
Tides and Currents Weather Stations Pressure Air Temp Water Temp Dewpoint Dewpoint Depression Visibility Wind Speed Wind Dir Waves Ship Positions

Aegean Viii

Last reported at 2017-May-23 11:35 UTC. Time now 2017-May-23 14:48 UTC.
Position N 38°02' E 023°32'.

Length 12 m; draft 3.8 m.

Type: Tanker. MMSI: 240732000.

Date/timePositionNaut miles runAvg speedWind from/ knotsBaromVisibWave heightAir tempDewpointWater temp
2017-May-23 11:35N 38°02' E 023°32'0 0.0
2017-May-23 11:30N 38°02' E 023°32'0 0.0
2017-May-23 11:00N 38°02' E 023°32'0 0.0
2017-May-23 10:30N 38°02' E 023°32'0 0.0
2017-May-23 10:00N 38°02' E 023°32'0 0.0
2017-May-23 09:30N 38°02' E 023°32'0 0.0
2017-May-23 09:00N 38°02' E 023°32'0 0.0
2017-May-23 08:30N 38°02' E 023°32'0 0.0
2017-May-23 08:00N 38°02' E 023°32'0 0.0
2017-May-23 07:31N 38°02' E 023°32'0 0.0
2017-May-23 07:00N 38°02' E 023°32'0 0.0
2017-May-23 06:30N 38°02' E 023°32'0 0.0
2017-May-23 06:00N 38°02' E 023°32'0 0.0
2017-May-23 05:30N 38°02' E 023°32'0 0.0
2017-May-23 05:01N 38°02' E 023°32'0 0.0
2017-May-22 15:17N 38°02' E 023°32'0 0.0
2017-May-22 15:00N 38°02' E 023°32'4 3.8
2017-May-22 14:00N 37°59' E 023°33'4 8.2
2017-May-22 13:30N 37°56' E 023°37'1 1.6
2017-May-22 13:00N 37°56' E 023°38'0 0.0
2017-May-22 12:30N 37°56' E 023°38'0 0.0
2017-May-22 12:00N 37°56' E 023°38'0 0.0
2017-May-22 11:29N 37°56' E 023°38'0 0.0
2017-May-22 11:00N 37°56' E 023°38'0 0.0
2017-May-22 10:30N 37°56' E 023°38'0 0.0
2017-May-22 10:00N 37°56' E 023°38'0 0.0
2017-May-22 09:30N 37°56' E 023°38'0 0.0
2017-May-22 09:00N 37°56' E 023°38'0 0.0
2017-May-22 08:29N 37°56' E 023°38'0 0.0
2017-May-22 08:00N 37°56' E 023°38'0 0.2
2017-May-22 07:30N 37°56' E 023°38'0 0.0
2017-May-22 07:00N 37°56' E 023°38'0 0.0
2017-May-22 06:30N 37°56' E 023°38'0 0.0
2017-May-22 06:00N 37°56' E 023°38'0 0.0
2017-May-22 05:30N 37°56' E 023°38'0 0.0
2017-May-22 05:00N 37°56' E 023°38'2 4.3
2017-May-22 04:30N 37°57' E 023°35'4 7.7
2017-May-22 04:00N 37°60' E 023°33'2 1.6
2017-May-22 02:33N 38°02' E 023°32'0 0.0
2017-May-22 02:30N 38°02' E 023°32'0 0.0
2017-May-22 02:00N 38°02' E 023°32'0 0.0
2017-May-22 01:30N 38°02' E 023°32'0 0.0
2017-May-22 01:00N 38°02' E 023°32'0 0.0
2017-May-22 00:26N 38°02' E 023°32'0 0.0
2017-May-21 11:38N 38°02' E 023°32'0 0.0
2017-May-21 11:30N 38°02' E 023°32'0 0.2
2017-May-21 11:00N 38°02' E 023°32'3 5.8
2017-May-21 10:30N 37°59' E 023°33'4 7.1
2017-May-21 09:59N 37°57' E 023°36'2 3.5
2017-May-21 09:30N 37°56' E 023°38'0 0.0
2017-May-21 09:00N 37°56' E 023°38'0 0.0
2017-May-21 08:31N 37°56' E 023°38'0 0.1
2017-May-21 08:00N 37°56' E 023°38'0 0.0
2017-May-21 07:30N 37°56' E 023°38'0 0.0
2017-May-21 07:00N 37°56' E 023°38'0 0.1
2017-May-21 06:30N 37°56' E 023°38'0 0.0
2017-May-21 06:00N 37°56' E 023°38'0 0.2
2017-May-21 05:30N 37°56' E 023°38'3 5.4
2017-May-21 05:00N 37°57' E 023°35'3 7.2
2017-May-21 04:31N 38°00' E 023°33'2 4.3
2017-May-21 04:00N 38°02' E 023°32'0 0.0
2017-May-21 03:30N 38°02' E 023°32'0 0.0
2017-May-21 03:00N 38°02' E 023°32'0 0.0
2017-May-21 02:30N 38°02' E 023°32'0 0.0
2017-May-21 02:00N 38°02' E 023°32'0 0.0
2017-May-20 08:01N 38°02' E 023°32'0 0.4
2017-May-20 08:00N 38°02' E 023°32'0 0.1
2017-May-20 07:30N 38°02' E 023°32'1 2.1
2017-May-20 07:00N 38°02' E 023°31'0 0.0
2017-May-20 06:30N 38°02' E 023°31'0 0.0
2017-May-20 06:00N 38°02' E 023°31'0 0.0
2017-May-20 05:30N 38°02' E 023°31'0 0.0
2017-May-20 05:00N 38°02' E 023°31'0 0.0
2017-May-20 04:30N 38°02' E 023°31'0 0.0
2017-May-20 04:00N 38°02' E 023°31'0 0.0
2017-May-20 03:31N 38°02' E 023°31'0 0.0
2017-May-20 03:00N 38°02' E 023°31'0 0.0
2017-May-20 02:30N 38°02' E 023°31'0 0.0
2017-May-20 02:00N 38°02' E 023°31'0 0.0
2017-May-20 01:31N 38°02' E 023°31'0 0.0
2017-May-20 01:00N 38°02' E 023°31'0 0.0
2017-May-20 00:30N 38°02' E 023°31'0 0.0
2017-May-20 00:00N 38°02' E 023°31'0 0.0
2017-May-19 23:30N 38°02' E 023°31'0 1.0
2017-May-19 23:01N 38°02' E 023°31'0 0.1
2017-May-19 22:30N 38°02' E 023°31'0 0.0
2017-May-19 22:00N 38°02' E 023°31'0 0.0
2017-May-19 21:30N 38°02' E 023°31'0 0.0
2017-May-19 21:00N 38°02' E 023°31'0 0.0
2017-May-19 20:30N 38°02' E 023°31'0 0.0
2017-May-19 19:59N 38°02' E 023°31'0 0.0
2017-May-19 19:30N 38°02' E 023°31'0 0.0
2017-May-19 19:00N 38°02' E 023°31'0 0.0
2017-May-19 18:30N 38°02' E 023°31'0 0.0
2017-May-19 18:00N 38°02' E 023°31'0 0.0
2017-May-19 17:29N 38°02' E 023°31'0 0.0
2017-May-19 17:00N 38°02' E 023°31'0 0.0
2017-May-19 16:30N 38°02' E 023°31'0 0.0
2017-May-19 16:00N 38°02' E 023°31'0 0.0
2017-May-19 15:30N 38°02' E 023°31'0 0.0
2017-May-19 15:00N 38°02' E 023°31'3 3.3
2017-May-19 14:01N 37°59' E 023°33'2 4.1
2017-May-19 13:30N 37°57' E 023°34'0 0.0
2017-May-19 13:01N 37°57' E 023°34'1 2.3
2017-May-19 12:30N 37°56' E 023°35'3 6.2
2017-May-19 12:00N 37°53' E 023°32'0 0.0
2017-May-19 11:30N 37°53' E 023°32'0 0.0
2017-May-19 11:00N 37°53' E 023°32'0 0.0
2017-May-19 10:30N 37°53' E 023°32'0 0.0
2017-May-19 10:00N 37°53' E 023°32'1 1.7
2017-May-19 09:30N 37°54' E 023°33'4 7.0
2017-May-19 09:00N 37°58' E 023°33'4 8.5
2017-May-19 08:31N 38°01' E 023°35'1 1.1
2017-May-19 08:01N 38°02' E 023°36'0 0.0
2017-May-19 07:31N 38°02' E 023°36'0 0.0
2017-May-19 07:01N 38°02' E 023°36'0 0.0
2017-May-19 06:31N 38°02' E 023°36'0 0.0
2017-May-19 06:01N 38°02' E 023°36'0 0.0
2017-May-19 05:30N 38°02' E 023°36'0 0.0
2017-May-19 05:00N 38°02' E 023°36'0 0.0
2017-May-19 04:29N 38°02' E 023°36'0 0.0
2017-May-19 04:00N 38°02' E 023°36'0 0.0
2017-May-19 03:30N 38°02' E 023°36'0 0.0
2017-May-19 03:00N 38°02' E 023°36'0 0.0
2017-May-19 02:30N 38°02' E 023°36'0 0.0
2017-May-19 02:00N 38°02' E 023°36'1 2.1
2017-May-19 01:30N 38°02' E 023°34'2 3.9
2017-May-19 01:00N 38°02' E 023°32'0 0.0
2017-May-19 00:30N 38°02' E 023°32'0 0.0
2017-May-18 09:29N 38°02' E 023°32'0 0.0
2017-May-18 09:01N 38°02' E 023°32'0 0.0
2017-May-18 08:31N 38°02' E 023°32'0 0.0
2017-May-18 07:59N 38°02' E 023°32'0 0.0
2017-May-18 07:31N 38°02' E 023°32'0 0.0
2017-May-18 07:00N 38°02' E 023°32'0 0.0
2017-May-18 06:30N 38°02' E 023°32'0 0.0
2017-May-18 06:00N 38°02' E 023°32'0 0.0
2017-May-18 05:29N 38°02' E 023°32'0 0.0
2017-May-18 05:00N 38°02' E 023°32'0 0.0
2017-May-17 11:19N 38°02' E 023°32'0 0.0
2017-May-17 11:01N 38°02' E 023°32'0 0.0
2017-May-17 10:30N 38°02' E 023°32'0 0.0
2017-May-17 10:00N 38°02' E 023°32'0 0.0
2017-May-17 09:30N 38°02' E 023°32'0 0.0
2017-May-17 09:00N 38°02' E 023°32'0 0.0
2017-May-17 08:30N 38°02' E 023°32'0 0.0
2017-May-17 08:00N 38°02' E 023°32'0 0.0
2017-May-17 07:30N 38°02' E 023°32'0 0.0
2017-May-17 06:59N 38°02' E 023°32'0 0.0
2017-May-17 06:30N 38°02' E 023°32'0 0.0
2017-May-17 06:00N 38°02' E 023°32'0 0.0
2017-May-17 05:31N 38°02' E 023°32'0 0.0
2017-May-17 05:01N 38°02' E 023°32'0 0.0
2017-May-16 11:35N 38°02' E 023°32'0 0.0
2017-May-16 11:30N 38°02' E 023°32'0 0.0
2017-May-16 11:00N 38°02' E 023°32'0 0.0
2017-May-16 10:30N 38°02' E 023°32'0 0.0
2017-May-16 10:00N 38°02' E 023°32'0 0.0
2017-May-16 09:30N 38°02' E 023°32'0 0.0
2017-May-16 09:00N 38°02' E 023°32'0 0.0
2017-May-16 08:30N 38°02' E 023°32'0 0.0
2017-May-16 08:00N 38°02' E 023°32'0 0.0
2017-May-16 07:30N 38°02' E 023°32'0 0.0
2017-May-16 07:00N 38°02' E 023°32'0 0.0
2017-May-16 06:30N 38°02' E 023°32'0 0.0
2017-May-16 06:00N 38°02' E 023°32'0 0.0
2017-May-16 05:30N 38°02' E 023°32'0 0.0
2017-May-16 05:00N 38°02' E 023°32'0 0.0
2017-May-15 11:59N 38°02' E 023°32'0 0.0
2017-May-15 11:31N 38°02' E 023°32'0 0.0
2017-May-15 11:00N 38°02' E 023°32'0 0.0
2017-May-15 10:30N 38°02' E 023°32'0 0.0
2017-May-15 10:01N 38°02' E 023°32'0 0.0
2017-May-15 09:30N 38°02' E 023°32'0 0.0
2017-May-15 09:01N 38°02' E 023°32'0 0.0
2017-May-15 08:30N 38°02' E 023°32'0 0.0
2017-May-15 08:01N 38°02' E 023°32'0 0.0
2017-May-15 07:30N 38°02' E 023°32'0 0.0
2017-May-15 07:00N 38°02' E 023°32'0 0.0
2017-May-15 06:30N 38°02' E 023°32'0 0.0
2017-May-15 06:00N 38°02' E 023°32'0 0.0
2017-May-15 05:31N 38°02' E 023°32'0 0.0
2017-May-15 05:00N 38°02' E 023°32'0 0.0
2017-May-15 04:30N 38°02' E 023°32'0 0.0
2017-May-15 04:00N 38°02' E 023°32'0 0.0
2017-May-15 03:30N 38°02' E 023°32'0 0.0
2017-May-15 03:00N 38°02' E 023°32'0 0.0
2017-May-15 02:30N 38°02' E 023°32'0 0.0
2017-May-15 02:00N 38°02' E 023°32'  

Dump ship's entire track history